KCKC

Grand Marais / Cook County Airport

Grand Marais, Minnesota, USA
METAR KCKC 150315Z AUTO 00000KT 10SM CLR 14/11 A2998 RMK AO2
Observed Flight Rules
Aug-15 @ 03:15 UTC (21 minutes ago) Visual Flight Rules
Visibility Clouds
10 miles
  • Clear skies
Temperatures Readings
Current 14°C / 57°F
Dewpoint 11°C / 52°F
Humidity 82%
Altimeter 29.98" Hg
Pressure 1015 hPa
Elevation 548
METAR KCKC 150315Z AUTO 00000KT 10SM CLR 14/11 A2998 RMK AO2
Observed Flight Rules
Aug-15 @ 03:15 UTC
(21 minutes ago)
VFR
Clouds
  • Clear skies
Temperature Dewpoint
14°C / 57°F 11°C / 52°F
Humidity Altimeter Pressure
82% 29.98" Hg 1015 hPa